DW7447 Guisborough UK current weather conditions

sailwx.info

Wind from 214 at 10 knots gusting 20

Air temperature 13.9° C
Dewpoint 11.8° C

Last reported at 2019-Aug-22 02:02 UTC.
Time now 2019-Aug-22 02:52 UTC

Location: N 54°32' W 001°05'.
View on Google Maps.

See reports from other nearby stations

  
Tides and Currents Weather Stations Pressure Air Temp Water Temp Dewpoint Dewpoint Depression Visibility Wind Speed Wind Dir Waves Ship Positions
date/time (UTC)wind fromknots sea level pressurealtimeterstation pressurevisibilityair tempwater tempwave heightnotes
2019-Aug-22 02:22 217 9 gusting 17 13.9
2019-Aug-22 02:12 239 10 gusting 18 13.9
2019-Aug-22 02:02 214 10 gusting 20 13.9
2019-Aug-22 01:52 250 9 gusting 22 13.9
2019-Aug-22 01:42 238 10 gusting 16 13.9
2019-Aug-22 01:32 239 9 gusting 17 14.4
2019-Aug-22 01:22 225 8 gusting 14 14.4
2019-Aug-22 01:12 243 8 gusting 21 14.4
2019-Aug-22 01:02 243 9 gusting 19 14.4
2019-Aug-22 00:52 237 7 gusting 17 14.4
2019-Aug-22 00:42 186 8 gusting 14 14.4
2019-Aug-22 00:32 230 9 gusting 14 14.4
2019-Aug-22 00:22 191 9 gusting 19 14.4
2019-Aug-22 00:12 222 9 gusting 23 14.4
2019-Aug-22 00:02 232 9 gusting 16 15.0
2019-Aug-21 23:52 226 10 gusting 20 15.0
2019-Aug-21 23:42 243 11 gusting 20 15.6
2019-Aug-21 23:32 262 11 gusting 21 15.6
2019-Aug-21 23:22 214 10 gusting 17 15.6
2019-Aug-21 23:12 226 11 gusting 21 15.6
2019-Aug-21 23:02 216 10 gusting 18 15.6
2019-Aug-21 22:52 210 9 gusting 16 15.6
2019-Aug-21 22:42 259 10 gusting 17 15.6
2019-Aug-21 22:32 235 9 gusting 19 15.6
2019-Aug-21 22:22 199 9 gusting 18 15.6
2019-Aug-21 22:12 248 10 gusting 15 15.6
2019-Aug-21 22:02 240 9 gusting 17 15.6
2019-Aug-21 21:52 231 8 gusting 15 15.6
2019-Aug-21 21:42 218 6 gusting 13 15.6
2019-Aug-21 21:32 252 8 gusting 15 15.6
2019-Aug-21 21:22 227 8 gusting 13 15.6
2019-Aug-21 21:12 231 10 gusting 17 15.6
2019-Aug-21 21:02 221 11 gusting 19 15.6
2019-Aug-21 20:52 181 12 gusting 20 15.6
2019-Aug-21 20:42 191 11 gusting 21 15.6
2019-Aug-21 20:32 233 9 gusting 15 15.6
2019-Aug-21 20:22 210 8 gusting 15 15.6
2019-Aug-21 20:12 229 9 gusting 15 15.6
2019-Aug-21 20:02 221 10 gusting 19 15.6
2019-Aug-21 19:52 193 10 gusting 18 16.1
2019-Aug-21 19:42 207 11 gusting 19 15.6
2019-Aug-21 19:32 191 10 gusting 16 15.6
2019-Aug-21 19:22 200 8 gusting 14 15.6
2019-Aug-21 19:12 214 6 gusting 12 15.6
2019-Aug-21 19:02 240 7 gusting 13 15.6
2019-Aug-21 18:52 239 6 gusting 13 15.6
2019-Aug-21 18:42 252 8 gusting 17 15.6
2019-Aug-21 18:32 241 7 gusting 16 15.6
2019-Aug-21 18:22 235 7 gusting 16 15.6
2019-Aug-21 18:12 214 6 gusting 16 15.6
2019-Aug-21 18:02 241 6 gusting 13 15.6
2019-Aug-21 17:52 258 6 gusting 13 15.6
2019-Aug-21 17:42 214 10 gusting 19 15.6
2019-Aug-21 17:32 203 6 gusting 13 15.6
2019-Aug-21 17:22 233 5 gusting 10 15.6
2019-Aug-21 17:12 208 5 gusting 11 15.6
2019-Aug-21 17:02 244 6 gusting 13 16.1
2019-Aug-21 16:52 249 10 gusting 18 17.2
2019-Aug-21 16:42 221 8 gusting 14 17.8
2019-Aug-21 16:32 214 5 gusting 12 18.3
2019-Aug-21 16:22 229 5 gusting 11 18.3
2019-Aug-21 16:12 240 4 gusting 10 18.9
2019-Aug-21 16:02 228 6 gusting 14 18.9
2019-Aug-21 15:52 266 6 gusting 13 19.4
2019-Aug-21 15:42 269 5 gusting 11 18.9
2019-Aug-21 15:32 214 6 gusting 10 18.9
2019-Aug-21 15:22 212 6 gusting 14 18.9
2019-Aug-21 15:12 210 6 gusting 15 18.9
2019-Aug-21 15:02 240 6 gusting 13 18.9
2019-Aug-21 14:52 216 7 gusting 14 18.9
2019-Aug-21 14:42 241 8 gusting 16 18.3
2019-Aug-21 14:32 256 10 gusting 23 18.3
2019-Aug-21 14:22 259 10 gusting 19 19.4
2019-Aug-21 14:12 233 7 gusting 13 20.6
2019-Aug-21 14:02 238 6 gusting 12 20.6
2019-Aug-21 13:52 222 6 gusting 13 19.4
2019-Aug-21 13:42 255 8 gusting 15 19.4
2019-Aug-21 13:32 236 7 gusting 15 20.0
2019-Aug-21 13:22 20.0
2019-Aug-21 13:12 257 6 gusting 14 19.4
2019-Aug-21 13:02 229 6 gusting 13 19.4
2019-Aug-21 12:52 240 7 gusting 14 19.4
2019-Aug-21 12:42 248 6 gusting 13 19.4
2019-Aug-21 12:32 295 7 gusting 17 19.4
2019-Aug-21 12:22 259 9 gusting 17 20.0
2019-Aug-21 12:12 226 7 gusting 15 20.6
2019-Aug-21 12:02 19.4
2019-Aug-21 11:52 19.4
2019-Aug-21 11:42 219 6 gusting 16 19.4
2019-Aug-21 11:32 272 6 gusting 15 18.9
2019-Aug-21 11:22 215 7 gusting 15 20.0
2019-Aug-21 11:12 259 6 gusting 13 19.4
2019-Aug-21 11:02 248 7 gusting 12 18.9
2019-Aug-21 10:52 230 6 gusting 14 17.8
2019-Aug-21 10:42 250 6 gusting 13 17.8
2019-Aug-21 10:32 220 5 gusting 12 18.3
2019-Aug-21 10:22 251 4 gusting 15 18.3
2019-Aug-21 10:12 259 4 gusting 11 17.8
2019-Aug-21 10:02 257 6 gusting 14 18.3
2019-Aug-21 09:52 198 6 gusting 14 18.3
2019-Aug-21 09:42 216 6 gusting 11 18.3
2019-Aug-21 09:32 219 6 gusting 13 18.3
2019-Aug-21 09:22 233 9 gusting 18 17.8
2019-Aug-21 09:12 211 6 gusting 13 17.8
2019-Aug-21 09:02 266 7 gusting 14 17.2
2019-Aug-21 08:52 260 10 gusting 15 16.7
2019-Aug-21 08:42 278 7 gusting 16 16.7
2019-Aug-21 08:32 285 6 gusting 13 16.1
2019-Aug-21 08:22 246 6 gusting 13 15.6
2019-Aug-21 08:12 265 6 gusting 13 15.6
2019-Aug-21 08:02 259 7 gusting 13 15.6
2019-Aug-21 07:52 224 8 gusting 13 15.6
2019-Aug-21 07:42 238 7 gusting 13 15.0
2019-Aug-21 07:32 253 8 gusting 14 15.0
2019-Aug-21 07:22 15.0
2019-Aug-21 07:12 262 5 gusting 10 14.4
2019-Aug-21 07:02 285 3 gusting 10 14.4
2019-Aug-21 06:52 193 5 gusting 8 13.9
2019-Aug-21 06:42 214 5 gusting 10 13.9
2019-Aug-21 06:32 213 6 gusting 12 13.9
2019-Aug-21 06:22 186 6 gusting 11 13.9
2019-Aug-21 06:12 209 5 gusting 9 13.9
2019-Aug-21 06:02 223 5 gusting 9 13.3
2019-Aug-21 05:52 231 4 gusting 9 13.3
2019-Aug-21 05:42 221 3 gusting 8 13.3
2019-Aug-21 05:32 232 5 gusting 10 13.3
2019-Aug-21 05:22 224 6 gusting 10 12.8
2019-Aug-21 05:12 218 5 gusting 11 12.8
2019-Aug-21 05:02 224 6 gusting 10 12.8
2019-Aug-21 04:52 238 6 gusting 10 12.8
2019-Aug-21 04:42 240 5 gusting 9 12.8
2019-Aug-21 04:32 202 4 gusting 9 12.8
2019-Aug-21 04:22 193 5 gusting 9 12.8
2019-Aug-21 04:12 220 6 gusting 10 12.8
2019-Aug-21 04:02 196 6 gusting 12 12.8
2019-Aug-21 03:52 212 6 gusting 10 12.8
2019-Aug-21 03:42 216 6 gusting 12 12.8
2019-Aug-21 03:32 235 6 gusting 11 12.8
2019-Aug-21 03:22 223 7 gusting 14 12.8
2019-Aug-21 03:12 269 6 gusting 10 12.8
2019-Aug-21 03:02 220 7 gusting 13 12.2
2019-Aug-21 02:52 221 6 gusting 12 12.8
2019-Aug-21 02:42 238 5 gusting 9 12.2
2019-Aug-21 02:32 216 6 gusting 10 12.2
2019-Aug-21 02:22 288 6 gusting 12 12.2
2019-Aug-21 02:12 235 6 gusting 12 12.2
2019-Aug-21 02:02 265 4 gusting 10 12.2
2019-Aug-21 01:52 262 2 gusting 5 12.2
2019-Aug-21 01:42 276 2 gusting 7 12.2
2019-Aug-21 01:32 255 1 gusting 5 12.2
2019-Aug-21 01:22 271 2 gusting 6 12.2
2019-Aug-21 01:12 271 3 gusting 9 12.2
2019-Aug-21 01:02 214 4 gusting 8 12.2
2019-Aug-21 00:52 229 6 gusting 12 12.8
2019-Aug-21 00:42 213 6 gusting 12 12.8
2019-Aug-21 00:32 201 5 gusting 10 12.8
2019-Aug-21 00:22 208 4 gusting 10 12.2
2019-Aug-21 00:12 240 3 gusting 8 12.2
2019-Aug-21 00:02 220 2 gusting 6 11.7
2019-Aug-20 23:52 236 3 gusting 6 11.7
2019-Aug-20 23:42 207 2 gusting 4 11.7
2019-Aug-20 23:32 223 2 gusting 4 11.7
2019-Aug-20 23:22 246 2 gusting 6 11.7
2019-Aug-20 23:12 243 2 gusting 4 12.2
2019-Aug-20 23:02 243 1 gusting 3 12.2
2019-Aug-20 22:52 246 2 gusting 4 12.2
2019-Aug-20 22:42 230 3 gusting 5 12.2
2019-Aug-20 22:32 230 3 gusting 6 12.2
2019-Aug-20 22:22 224 3 gusting 6 12.2
2019-Aug-20 22:12 226 2 gusting 5 11.7
2019-Aug-20 22:02 249 1 gusting 4 11.7
2019-Aug-20 21:52 234 2 gusting 5 11.7
2019-Aug-20 21:42 249 1 gusting 4 11.1
2019-Aug-20 21:32 283 1 gusting 3 11.1
2019-Aug-20 21:22 254 11.1
2019-Aug-20 21:12 255 0 gusting 2 11.7
2019-Aug-20 21:02 248 1 gusting 3 11.7
2019-Aug-20 20:52 228 2 gusting 4 11.7
2019-Aug-20 20:42 215 2 gusting 6 11.7
2019-Aug-20 20:32 241 1 gusting 4 12.2
2019-Aug-20 20:22 259 1 gusting 2 12.2
2019-Aug-20 20:12 255 12.8
2019-Aug-20 20:02 255 13.3
2019-Aug-20 19:52 255 1 gusting 3 13.3
2019-Aug-20 19:42 232 3 gusting 6 13.9
2019-Aug-20 19:32 230 3 gusting 6 14.4
2019-Aug-20 19:22 246 3 gusting 7 14.4
2019-Aug-20 19:12 251 3 gusting 6 15.0
2019-Aug-20 19:02 257 3 gusting 8 15.0
2019-Aug-20 18:52 264 3 gusting 6 15.6
2019-Aug-20 18:42 297 3 gusting 8 15.6
2019-Aug-20 18:32 300 4 gusting 11 16.1
2019-Aug-20 18:22 285 6 gusting 13 16.7
2019-Aug-20 18:12 236 5 gusting 10 16.7
2019-Aug-20 18:02 245 5 gusting 10 16.7
2019-Aug-20 17:52 274 3 gusting 9 16.1
2019-Aug-20 17:42 259 3 gusting 8 16.7
2019-Aug-20 17:32 246 3 gusting 8 16.7
2019-Aug-20 17:22 200 5 gusting 11 16.7
2019-Aug-20 17:12 274 5 gusting 10 16.7
2019-Aug-20 17:02 209 4 gusting 8 17.2
2019-Aug-20 16:52 241 4 gusting 8 17.2
2019-Aug-20 16:42 258 2 gusting 6 17.2
2019-Aug-20 16:32 228 4 gusting 10 17.2
2019-Aug-20 16:22 207 4 gusting 11 17.2
2019-Aug-20 16:12 268 5 gusting 11 17.2
2019-Aug-20 16:02 314 4 gusting 8 17.2
2019-Aug-20 15:52 297 3 gusting 9 16.7
2019-Aug-20 15:42 275 4 gusting 11 16.7
2019-Aug-20 15:32 276 6 gusting 13 16.7
2019-Aug-20 15:22 296 5 gusting 12 17.2
2019-Aug-20 15:12 238 5 gusting 12 17.2
2019-Aug-20 15:02 306 5 gusting 11 16.7
2019-Aug-20 14:52 302 5 gusting 13 16.7
2019-Aug-20 14:42 271 6 gusting 13 16.7
2019-Aug-20 14:32 236 7 gusting 15 16.7
2019-Aug-20 14:22 265 6 gusting 12 16.7
2019-Aug-20 14:12 205 5 gusting 10 16.7
2019-Aug-20 14:02 278 5 gusting 9 16.7
2019-Aug-20 13:52 288 5 gusting 13 16.7
2019-Aug-20 13:42 285 5 gusting 10 16.7
2019-Aug-20 13:32 279 6 gusting 14 16.7
2019-Aug-20 13:22 270 6 gusting 13 16.7
2019-Aug-20 13:12 297 6 gusting 13 16.7
2019-Aug-20 13:02 282 6 gusting 13 16.7
2019-Aug-20 12:52 288 6 gusting 12 16.1
2019-Aug-20 12:42 245 6 gusting 11 16.7
2019-Aug-20 12:32 292 5 gusting 12 16.7
2019-Aug-20 12:22 253 5 gusting 10 16.7
2019-Aug-20 12:12 235 5 gusting 11 16.7
2019-Aug-20 12:02 297 6 gusting 14 16.1
2019-Aug-20 11:52 319 6 gusting 14 16.7
2019-Aug-20 11:42 257 6 gusting 13 16.7
2019-Aug-20 11:32 289 5 gusting 13 16.7
2019-Aug-20 11:22 293 7 gusting 13 16.1
2019-Aug-20 11:12 235 5 gusting 13 16.7
2019-Aug-20 11:02 321 6 gusting 11 16.1
2019-Aug-20 10:52 280 5 gusting 11 16.1
2019-Aug-20 10:42 295 5 gusting 12 16.1
2019-Aug-20 10:32 317 6 gusting 12 16.1
2019-Aug-20 10:22 314 4 gusting 11 16.1
2019-Aug-20 10:12 306 5 gusting 11 15.6
2019-Aug-20 10:02 276 6 gusting 11 15.6
2019-Aug-20 09:52 297 6 gusting 12 15.6
2019-Aug-20 09:42 281 6 gusting 13 15.0
2019-Aug-20 09:32 292 6 gusting 11 15.0
2019-Aug-20 09:22 252 6 gusting 10 15.0
2019-Aug-20 09:12 328 5 gusting 12 14.4
2019-Aug-20 09:02 274 6 gusting 12 14.4
2019-Aug-20 08:52 321 6 gusting 12 14.4
2019-Aug-20 08:42 290 6 gusting 13 14.4
2019-Aug-20 08:32 261 6 gusting 13 14.4
2019-Aug-20 08:22 291 6 gusting 13 14.4
2019-Aug-20 08:12 286 6 gusting 11 14.4
2019-Aug-20 08:02 207 6 gusting 13 13.9
2019-Aug-20 07:52 281 5 gusting 13 13.3
2019-Aug-20 07:42 234 5 gusting 11 13.3
2019-Aug-20 07:32 232 4 gusting 12 12.8
2019-Aug-20 07:22 285 5 gusting 10 12.8
2019-Aug-20 07:12 238 6 gusting 11 12.8
2019-Aug-20 07:02 277 5 gusting 11 12.8
2019-Aug-20 06:52 234 5 gusting 13 12.2
2019-Aug-20 06:42 234 4 gusting 9 12.2
2019-Aug-20 06:32 259 4 gusting 11 12.2
2019-Aug-20 06:22 229 4 gusting 11 12.2
2019-Aug-20 06:12 267 4 gusting 9 12.2
2019-Aug-20 06:02 240 3 gusting 7 12.2
2019-Aug-20 05:52 257 5 gusting 10 12.2
2019-Aug-20 05:42 259 6 gusting 13 11.7
2019-Aug-20 05:32 240 5 gusting 9 11.7
2019-Aug-20 05:22 243 5 gusting 10 11.7
2019-Aug-20 05:12 241 4 gusting 11 11.7
2019-Aug-20 05:02 243 4 gusting 10 11.7
2019-Aug-20 04:52 248 4 gusting 10 11.7
2019-Aug-20 04:42 210 4 gusting 9 11.7
2019-Aug-20 04:32 278 5 gusting 12 11.7
2019-Aug-20 04:22 273 6 gusting 11 12.2
2019-Aug-20 04:12 254 5 gusting 13 12.2
2019-Aug-20 04:02 247 6 gusting 11 12.2
2019-Aug-20 03:52 227 5 gusting 11 12.2
2019-Aug-20 03:42 219 5 gusting 11 12.2
2019-Aug-20 03:32 259 5 gusting 11 12.2
2019-Aug-20 03:22 247 5 gusting 10 12.2
2019-Aug-20 03:12 236 6 gusting 12 12.2
2019-Aug-20 03:02 243 5 gusting 10 12.2
2019-Aug-20 02:52 226 6 gusting 13 12.2
2019-Aug-20 02:42 224 6 gusting 12 12.2
2019-Aug-20 02:32 256 5 gusting 8 12.2
2019-Aug-20 02:22 248 5 gusting 11 12.2
2019-Aug-20 02:12 232 7 gusting 13 12.2
2019-Aug-20 02:02 240 6 gusting 13 12.2